sensor_id;sensor_type;location;lat;lon;timestamp;temperature;humidity
10089;DHT22;51898;49.864;8.550;2023-08-06T00:00:00;15.70;93.60
10089;DHT22;51898;49.864;8.550;2023-08-06T00:03:02;15.70;93.90
10089;DHT22;51898;49.864;8.550;2023-08-06T00:06:07;15.70;94.10
10089;DHT22;51898;49.864;8.550;2023-08-06T00:09:08;15.70;94.20
10089;DHT22;51898;49.864;8.550;2023-08-06T00:12:10;15.60;94.40
10089;DHT22;51898;49.864;8.550;2023-08-06T00:15:12;15.60;94.50
10089;DHT22;51898;49.864;8.550;2023-08-06T00:18:14;15.60;95.00
10089;DHT22;51898;49.864;8.550;2023-08-06T00:21:15;15.70;95.00
10089;DHT22;51898;49.864;8.550;2023-08-06T00:24:17;15.70;94.70
10089;DHT22;51898;49.864;8.550;2023-08-06T00:27:19;15.80;94.70
10089;DHT22;51898;49.864;8.550;2023-08-06T00:30:20;15.80;94.50
10089;DHT22;51898;49.864;8.550;2023-08-06T00:33:23;15.90;94.50
10089;DHT22;51898;49.864;8.550;2023-08-06T00:36:24;15.90;94.40
10089;DHT22;51898;49.864;8.550;2023-08-06T00:39:26;15.90;94.50
10089;DHT22;51898;49.864;8.550;2023-08-06T00:42:28;15.90;94.20
10089;DHT22;51898;49.864;8.550;2023-08-06T00:45:35;16.00;94.00
10089;DHT22;51898;49.864;8.550;2023-08-06T00:48:40;15.90;93.90
10089;DHT22;51898;49.864;8.550;2023-08-06T00:51:43;16.00;93.90
10089;DHT22;51898;49.864;8.550;2023-08-06T00:54:44;16.00;93.70
10089;DHT22;51898;49.864;8.550;2023-08-06T00:57:46;16.00;93.70
10089;DHT22;51898;49.864;8.550;2023-08-06T01:04:05;16.10;93.50
10089;DHT22;51898;49.864;8.550;2023-08-06T01:07:27;16.10;93.20
10089;DHT22;51898;49.864;8.550;2023-08-06T01:13:58;16.10;92.70
10089;DHT22;51898;49.864;8.550;2023-08-06T01:17:01;16.20;92.50
10089;DHT22;51898;49.864;8.550;2023-08-06T01:20:04;16.20;92.10
10089;DHT22;51898;49.864;8.550;2023-08-06T01:23:06;16.20;91.80
10089;DHT22;51898;49.864;8.550;2023-08-06T01:29:23;16.20;91.40
10089;DHT22;51898;49.864;8.550;2023-08-06T01:32:28;16.30;91.10
10089;DHT22;51898;49.864;8.550;2023-08-06T01:35:31;16.30;90.90
10089;DHT22;51898;49.864;8.550;2023-08-06T01:38:33;16.30;90.80
10089;DHT22;51898;49.864;8.550;2023-08-06T01:41:35;16.40;90.40
10089;DHT22;51898;49.864;8.550;2023-08-06T01:44:37;16.40;90.00
10089;DHT22;51898;49.864;8.550;2023-08-06T01:47:39;16.40;90.00
10089;DHT22;51898;49.864;8.550;2023-08-06T01:50:41;16.40;89.90
10089;DHT22;51898;49.864;8.550;2023-08-06T01:53:42;16.40;89.80
10089;DHT22;51898;49.864;8.550;2023-08-06T01:56:44;16.30;89.60
10089;DHT22;51898;49.864;8.550;2023-08-06T01:59:46;16.30;89.50
10089;DHT22;51898;49.864;8.550;2023-08-06T02:02:47;16.30;89.30
10089;DHT22;51898;49.864;8.550;2023-08-06T02:05:49;16.30;89.30
10089;DHT22;51898;49.864;8.550;2023-08-06T02:08:52;16.30;89.20
10089;DHT22;51898;49.864;8.550;2023-08-06T02:11:54;16.40;89.10
10089;DHT22;51898;49.864;8.550;2023-08-06T02:14:56;16.40;88.80
10089;DHT22;51898;49.864;8.550;2023-08-06T02:17:57;16.40;88.80
10089;DHT22;51898;49.864;8.550;2023-08-06T02:20:59;16.40;88.80
10089;DHT22;51898;49.864;8.550;2023-08-06T02:24:02;16.50;88.80
10089;DHT22;51898;49.864;8.550;2023-08-06T02:27:03;16.50;88.60
10089;DHT22;51898;49.864;8.550;2023-08-06T02:30:06;16.50;88.20
10089;DHT22;51898;49.864;8.550;2023-08-06T02:33:08;16.40;88.10
10089;DHT22;51898;49.864;8.550;2023-08-06T02:36:09;16.50;88.10
10089;DHT22;51898;49.864;8.550;2023-08-06T02:39:11;16.40;88.10
10089;DHT22;51898;49.864;8.550;2023-08-06T02:42:13;16.40;87.80
10089;DHT22;51898;49.864;8.550;2023-08-06T02:45:14;16.50;87.50
10089;DHT22;51898;49.864;8.550;2023-08-06T02:48:16;16.40;87.20
10089;DHT22;51898;49.864;8.550;2023-08-06T02:51:19;16.40;87.10
10089;DHT22;51898;49.864;8.550;2023-08-06T02:54:21;16.40;86.80
10089;DHT22;51898;49.864;8.550;2023-08-06T02:57:23;16.40;86.90
10089;DHT22;51898;49.864;8.550;2023-08-06T03:00:24;16.40;86.90
10089;DHT22;51898;49.864;8.550;2023-08-06T03:03:26;16.30;85.90
10089;DHT22;51898;49.864;8.550;2023-08-06T03:06:28;16.20;86.10
10089;DHT22;51898;49.864;8.550;2023-08-06T03:09:30;16.10;86.40
10089;DHT22;51898;49.864;8.550;2023-08-06T03:12:32;16.10;86.60
10089;DHT22;51898;49.864;8.550;2023-08-06T03:15:33;16.00;86.80
10089;DHT22;51898;49.864;8.550;2023-08-06T03:18:36;16.00;87.00
10089;DHT22;51898;49.864;8.550;2023-08-06T03:21:38;16.00;87.50
10089;DHT22;51898;49.864;8.550;2023-08-06T03:24:40;16.00;87.30
10089;DHT22;51898;49.864;8.550;2023-08-06T03:27:41;15.90;87.70
10089;DHT22;51898;49.864;8.550;2023-08-06T03:30:43;15.90;87.90
10089;DHT22;51898;49.864;8.550;2023-08-06T03:33:45;15.90;88.20
10089;DHT22;51898;49.864;8.550;2023-08-06T03:36:46;15.90;88.10
10089;DHT22;51898;49.864;8.550;2023-08-06T03:39:48;15.80;88.10
10089;DHT22;51898;49.864;8.550;2023-08-06T03:42:50;15.70;88.70
10089;DHT22;51898;49.864;8.550;2023-08-06T03:45:51;15.70;89.00
10089;DHT22;51898;49.864;8.550;2023-08-06T03:48:53;15.60;89.20
10089;DHT22;51898;49.864;8.550;2023-08-06T03:51:55;15.70;89.10
10089;DHT22;51898;49.864;8.550;2023-08-06T03:54:57;15.70;89.30
10089;DHT22;51898;49.864;8.550;2023-08-06T03:57:58;15.70;89.10
10089;DHT22;51898;49.864;8.550;2023-08-06T04:01:01;15.70;89.40
10089;DHT22;51898;49.864;8.550;2023-08-06T04:04:03;15.70;89.90
10089;DHT22;51898;49.864;8.550;2023-08-06T04:07:05;15.70;90.90
10089;DHT22;51898;49.864;8.550;2023-08-06T04:10:07;15.60;92.00
10089;DHT22;51898;49.864;8.550;2023-08-06T04:13:08;15.50;92.90
10089;DHT22;51898;49.864;8.550;2023-08-06T04:16:10;15.50;93.50
10089;DHT22;51898;49.864;8.550;2023-08-06T04:19:18;15.40;94.50
10089;DHT22;51898;49.864;8.550;2023-08-06T04:22:21;15.30;94.70
10089;DHT22;51898;49.864;8.550;2023-08-06T04:25:22;15.30;95.30
10089;DHT22;51898;49.864;8.550;2023-08-06T04:28:25;15.30;95.80
10089;DHT22;51898;49.864;8.550;2023-08-06T04:31:26;15.30;95.80
10089;DHT22;51898;49.864;8.550;2023-08-06T04:34:28;15.30;96.00
10089;DHT22;51898;49.864;8.550;2023-08-06T04:37:30;15.30;96.30
10089;DHT22;51898;49.864;8.550;2023-08-06T04:40:34;15.40;96.20
10089;DHT22;51898;49.864;8.550;2023-08-06T04:43:36;15.40;96.40
10089;DHT22;51898;49.864;8.550;2023-08-06T04:46:37;15.40;96.30
10089;DHT22;51898;49.864;8.550;2023-08-06T04:49:39;15.30;96.40
10089;DHT22;51898;49.864;8.550;2023-08-06T04:52:41;15.40;96.00
10089;DHT22;51898;49.864;8.550;2023-08-06T04:55:42;15.40;96.10
10089;DHT22;51898;49.864;8.550;2023-08-06T04:58:44;15.40;96.10
10089;DHT22;51898;49.864;8.550;2023-08-06T05:01:46;15.40;95.80
10089;DHT22;51898;49.864;8.550;2023-08-06T05:04:47;15.40;95.90
10089;DHT22;51898;49.864;8.550;2023-08-06T05:07:49;15.40;96.10
10089;DHT22;51898;49.864;8.550;2023-08-06T05:10:51;15.40;96.00
10089;DHT22;51898;49.864;8.550;2023-08-06T05:13:53;15.40;95.60
10089;DHT22;51898;49.864;8.550;2023-08-06T05:16:55;15.40;95.50
10089;DHT22;51898;49.864;8.550;2023-08-06T05:19:56;15.40;94.80
10089;DHT22;51898;49.864;8.550;2023-08-06T05:22:58;15.40;95.10
10089;DHT22;51898;49.864;8.550;2023-08-06T05:25:59;15.50;95.00
10089;DHT22;51898;49.864;8.550;2023-08-06T05:29:01;15.50;95.10
10089;DHT22;51898;49.864;8.550;2023-08-06T05:32:03;15.50;94.40
10089;DHT22;51898;49.864;8.550;2023-08-06T05:35:05;15.40;94.40
10089;DHT22;51898;49.864;8.550;2023-08-06T05:38:07;15.40;94.40
10089;DHT22;51898;49.864;8.550;2023-08-06T05:41:09;15.40;94.30
10089;DHT22;51898;49.864;8.550;2023-08-06T05:44:11;15.30;95.00
10089;DHT22;51898;49.864;8.550;2023-08-06T05:47:13;15.40;95.10
10089;DHT22;51898;49.864;8.550;2023-08-06T05:50:14;15.50;95.20
10089;DHT22;51898;49.864;8.550;2023-08-06T05:53:16;15.50;95.20
10089;DHT22;51898;49.864;8.550;2023-08-06T05:56:18;15.60;95.10
10089;DHT22;51898;49.864;8.550;2023-08-06T05:59:20;15.70;95.00
10089;DHT22;51898;49.864;8.550;2023-08-06T06:02:21;15.70;94.70
10089;DHT22;51898;49.864;8.550;2023-08-06T06:05:23;15.70;94.70
10089;DHT22;51898;49.864;8.550;2023-08-06T06:08:25;15.80;94.40
10089;DHT22;51898;49.864;8.550;2023-08-06T06:11:26;15.80;94.30
10089;DHT22;51898;49.864;8.550;2023-08-06T06:14:28;15.80;94.40
10089;DHT22;51898;49.864;8.550;2023-08-06T06:17:30;15.80;93.50
10089;DHT22;51898;49.864;8.550;2023-08-06T06:20:32;15.90;93.70
10089;DHT22;51898;49.864;8.550;2023-08-06T06:23:34;15.90;93.40
10089;DHT22;51898;49.864;8.550;2023-08-06T06:26:36;15.90;93.50
10089;DHT22;51898;49.864;8.550;2023-08-06T06:29:38;16.00;92.70
10089;DHT22;51898;49.864;8.550;2023-08-06T06:32:40;16.00;92.80
10089;DHT22;51898;49.864;8.550;2023-08-06T06:35:42;16.00;92.50
10089;DHT22;51898;49.864;8.550;2023-08-06T06:38:44;16.10;92.00
10089;DHT22;51898;49.864;8.550;2023-08-06T06:41:46;16.10;92.10
10089;DHT22;51898;49.864;8.550;2023-08-06T06:44:47;16.20;91.60
10089;DHT22;51898;49.864;8.550;2023-08-06T06:47:49;16.20;91.60
10089;DHT22;51898;49.864;8.550;2023-08-06T06:50:51;16.20;92.10
10089;DHT22;51898;49.864;8.550;2023-08-06T06:53:52;16.10;91.50
10089;DHT22;51898;49.864;8.550;2023-08-06T06:56:54;16.10;91.30
10089;DHT22;51898;49.864;8.550;2023-08-06T06:59:56;16.20;91.50
10089;DHT22;51898;49.864;8.550;2023-08-06T07:02:58;16.20;90.50
10089;DHT22;51898;49.864;8.550;2023-08-06T07:05:59;16.20;90.60
10089;DHT22;51898;49.864;8.550;2023-08-06T07:09:01;16.20;90.30
10089;DHT22;51898;49.864;8.550;2023-08-06T07:12:03;16.20;91.40
10089;DHT22;51898;49.864;8.550;2023-08-06T07:15:09;16.20;90.10
10089;DHT22;51898;49.864;8.550;2023-08-06T07:18:11;16.20;90.90
10089;DHT22;51898;49.864;8.550;2023-08-06T07:21:13;16.20;90.90
10089;DHT22;51898;49.864;8.550;2023-08-06T07:24:15;16.10;91.10
10089;DHT22;51898;49.864;8.550;2023-08-06T07:27:17;16.00;91.30
10089;DHT22;51898;49.864;8.550;2023-08-06T07:30:18;16.00;91.40
10089;DHT22;51898;49.864;8.550;2023-08-06T07:33:20;16.10;92.00
10089;DHT22;51898;49.864;8.550;2023-08-06T07:36:22;16.00;92.30
10089;DHT22;51898;49.864;8.550;2023-08-06T07:39:23;16.10;93.20
10089;DHT22;51898;49.864;8.550;2023-08-06T07:42:25;16.10;93.50
10089;DHT22;51898;49.864;8.550;2023-08-06T07:45:27;16.10;93.80
10089;DHT22;51898;49.864;8.550;2023-08-06T07:48:29;16.10;93.70
10089;DHT22;51898;49.864;8.550;2023-08-06T07:51:34;16.00;94.00
10089;DHT22;51898;49.864;8.550;2023-08-06T07:54:36;16.00;94.00
10089;DHT22;51898;49.864;8.550;2023-08-06T07:57:37;16.10;93.90
10089;DHT22;51898;49.864;8.550;2023-08-06T08:00:40;16.20;93.90
10089;DHT22;51898;49.864;8.550;2023-08-06T08:03:44;16.50;93.70
10089;DHT22;51898;49.864;8.550;2023-08-06T08:06:45;16.70;93.00
10089;DHT22;51898;49.864;8.550;2023-08-06T08:09:47;16.90;92.30
10089;DHT22;51898;49.864;8.550;2023-08-06T08:12:50;17.10;92.60
10089;DHT22;51898;49.864;8.550;2023-08-06T08:15:59;17.50;92.00
10089;DHT22;51898;49.864;8.550;2023-08-06T08:19:01;17.80;90.40
10089;DHT22;51898;49.864;8.550;2023-08-06T08:22:04;18.20;88.40
10089;DHT22;51898;49.864;8.550;2023-08-06T08:25:06;18.50;87.40
10089;DHT22;51898;49.864;8.550;2023-08-06T08:28:08;18.80;85.80
10089;DHT22;51898;49.864;8.550;2023-08-06T08:31:11;19.10;84.60
10089;DHT22;51898;49.864;8.550;2023-08-06T08:34:13;19.20;82.60
10089;DHT22;51898;49.864;8.550;2023-08-06T08:37:14;19.10;83.10
10089;DHT22;51898;49.864;8.550;2023-08-06T08:40:16;19.00;81.60
10089;DHT22;51898;49.864;8.550;2023-08-06T08:43:20;19.00;82.30
10089;DHT22;51898;49.864;8.550;2023-08-06T08:46:23;18.80;82.60
10089;DHT22;51898;49.864;8.550;2023-08-06T08:49:27;18.60;82.00
10089;DHT22;51898;49.864;8.550;2023-08-06T08:52:31;18.70;80.80
10089;DHT22;51898;49.864;8.550;2023-08-06T08:55:35;18.70;80.30
10089;DHT22;51898;49.864;8.550;2023-08-06T08:58:37;18.80;80.40
10089;DHT22;51898;49.864;8.550;2023-08-06T09:01:40;18.90;79.20
10089;DHT22;51898;49.864;8.550;2023-08-06T09:04:44;19.00;79.20
10089;DHT22;51898;49.864;8.550;2023-08-06T09:07:48;19.10;79.90
10089;DHT22;51898;49.864;8.550;2023-08-06T09:10:50;19.00;78.30
10089;DHT22;51898;49.864;8.550;2023-08-06T09:13:59;18.90;79.40
10089;DHT22;51898;49.864;8.550;2023-08-06T09:17:04;18.90;78.70
10089;DHT22;51898;49.864;8.550;2023-08-06T09:20:11;18.90;79.40
10089;DHT22;51898;49.864;8.550;2023-08-06T09:23:13;18.90;79.00
10089;DHT22;51898;49.864;8.550;2023-08-06T09:26:17;18.90;79.20
10089;DHT22;51898;49.864;8.550;2023-08-06T09:29:20;19.00;77.90
10089;DHT22;51898;49.864;8.550;2023-08-06T09:32:22;19.00;78.40
10089;DHT22;51898;49.864;8.550;2023-08-06T09:35:29;18.70;80.30
10089;DHT22;51898;49.864;8.550;2023-08-06T09:38:37;18.40;80.70
10089;DHT22;51898;49.864;8.550;2023-08-06T09:41:41;18.10;83.20
10089;DHT22;51898;49.864;8.550;2023-08-06T09:44:45;18.10;83.90
10089;DHT22;51898;49.864;8.550;2023-08-06T09:47:47;18.00;83.00
10089;DHT22;51898;49.864;8.550;2023-08-06T09:50:49;18.00;83.10
10089;DHT22;51898;49.864;8.550;2023-08-06T09:53:53;17.90;83.10
10089;DHT22;51898;49.864;8.550;2023-08-06T09:56:56;17.90;85.30
10089;DHT22;51898;49.864;8.550;2023-08-06T09:59:59;17.80;86.70
10089;DHT22;51898;49.864;8.550;2023-08-06T10:03:01;18.00;86.50
10089;DHT22;51898;49.864;8.550;2023-08-06T10:06:03;18.00;83.30
10089;DHT22;51898;49.864;8.550;2023-08-06T10:09:09;18.20;84.60
10089;DHT22;51898;49.864;8.550;2023-08-06T10:12:11;18.30;83.40
10089;DHT22;51898;49.864;8.550;2023-08-06T10:15:16;18.20;80.90
10089;DHT22;51898;49.864;8.550;2023-08-06T10:18:19;18.40;83.60
10089;DHT22;51898;49.864;8.550;2023-08-06T10:21:24;18.40;81.10
10089;DHT22;51898;49.864;8.550;2023-08-06T10:24:26;17.90;84.00
10089;DHT22;51898;49.864;8.550;2023-08-06T10:27:53;17.70;83.60
10089;DHT22;51898;49.864;8.550;2023-08-06T10:30:55;17.70;84.50
10089;DHT22;51898;49.864;8.550;2023-08-06T10:33:57;18.00;84.20
10089;DHT22;51898;49.864;8.550;2023-08-06T10:36:59;18.20;83.00
10089;DHT22;51898;49.864;8.550;2023-08-06T10:40:04;18.50;82.70
10089;DHT22;51898;49.864;8.550;2023-08-06T10:43:34;18.70;80.40
10089;DHT22;51898;49.864;8.550;2023-08-06T10:46:37;18.80;80.10
10089;DHT22;51898;49.864;8.550;2023-08-06T10:49:39;18.80;78.60
10089;DHT22;51898;49.864;8.550;2023-08-06T10:52:42;18.80;79.30
10089;DHT22;51898;49.864;8.550;2023-08-06T10:55:44;18.60;78.30
10089;DHT22;51898;49.864;8.550;2023-08-06T10:58:47;18.60;78.60
10089;DHT22;51898;49.864;8.550;2023-08-06T11:01:49;18.80;78.90
10089;DHT22;51898;49.864;8.550;2023-08-06T11:04:53;19.00;78.10
10089;DHT22;51898;49.864;8.550;2023-08-06T11:07:55;19.00;78.10
10089;DHT22;51898;49.864;8.550;2023-08-06T11:11:08;19.30;78.00
10089;DHT22;51898;49.864;8.550;2023-08-06T11:14:15;19.40;75.40
10089;DHT22;51898;49.864;8.550;2023-08-06T11:17:17;19.20;73.80
10089;DHT22;51898;49.864;8.550;2023-08-06T11:20:20;19.20;75.40
10089;DHT22;51898;49.864;8.550;2023-08-06T11:23:23;19.00;73.90
10089;DHT22;51898;49.864;8.550;2023-08-06T11:26:27;19.00;74.70
10089;DHT22;51898;49.864;8.550;2023-08-06T11:29:30;18.90;73.00
10089;DHT22;51898;49.864;8.550;2023-08-06T11:32:31;18.90;74.60
10089;DHT22;51898;49.864;8.550;2023-08-06T11:35:35;18.90;71.80
10089;DHT22;51898;49.864;8.550;2023-08-06T11:38:37;18.70;71.70
10089;DHT22;51898;49.864;8.550;2023-08-06T11:41:39;18.30;73.50
10089;DHT22;51898;49.864;8.550;2023-08-06T11:44:45;18.10;75.60
10089;DHT22;51898;49.864;8.550;2023-08-06T11:47:52;18.00;77.70
10089;DHT22;51898;49.864;8.550;2023-08-06T11:50:55;17.80;79.20
10089;DHT22;51898;49.864;8.550;2023-08-06T11:53:58;17.50;80.10
10089;DHT22;51898;49.864;8.550;2023-08-06T11:57:00;17.30;81.70
10089;DHT22;51898;49.864;8.550;2023-08-06T12:00:05;17.30;83.00
10089;DHT22;51898;49.864;8.550;2023-08-06T12:03:09;17.40;82.50
10089;DHT22;51898;49.864;8.550;2023-08-06T12:06:17;17.50;81.30
10089;DHT22;51898;49.864;8.550;2023-08-06T12:09:19;17.60;81.70
10089;DHT22;51898;49.864;8.550;2023-08-06T12:12:23;17.60;80.60
10089;DHT22;51898;49.864;8.550;2023-08-06T12:15:24;17.50;81.70
10089;DHT22;51898;49.864;8.550;2023-08-06T12:18:26;17.40;81.80
10089;DHT22;51898;49.864;8.550;2023-08-06T12:21:28;17.30;83.20
10089;DHT22;51898;49.864;8.550;2023-08-06T12:24:30;17.30;84.00
10089;DHT22;51898;49.864;8.550;2023-08-06T12:27:36;17.20;80.10
10089;DHT22;51898;49.864;8.550;2023-08-06T12:30:39;17.10;77.60
10089;DHT22;51898;49.864;8.550;2023-08-06T12:33:44;17.20;80.70
10089;DHT22;51898;49.864;8.550;2023-08-06T12:36:46;17.30;81.60
10089;DHT22;51898;49.864;8.550;2023-08-06T12:39:47;17.50;79.40
10089;DHT22;51898;49.864;8.550;2023-08-06T12:42:50;17.60;78.70
10089;DHT22;51898;49.864;8.550;2023-08-06T12:45:52;17.40;75.90
10089;DHT22;51898;49.864;8.550;2023-08-06T12:48:54;17.30;76.80
10089;DHT22;51898;49.864;8.550;2023-08-06T12:51:56;17.20;76.50
10089;DHT22;51898;49.864;8.550;2023-08-06T12:54:58;17.10;77.10
10089;DHT22;51898;49.864;8.550;2023-08-06T12:58:00;17.20;79.20
10089;DHT22;51898;49.864;8.550;2023-08-06T13:01:01;17.20;76.80
10089;DHT22;51898;49.864;8.550;2023-08-06T13:04:03;17.10;77.00
10089;DHT22;51898;49.864;8.550;2023-08-06T13:07:22;17.10;75.20
10089;DHT22;51898;49.864;8.550;2023-08-06T13:10:24;17.00;77.10
10089;DHT22;51898;49.864;8.550;2023-08-06T13:13:27;17.00;76.00
10089;DHT22;51898;49.864;8.550;2023-08-06T13:16:28;17.10;76.40
10089;DHT22;51898;49.864;8.550;2023-08-06T13:19:30;17.10;76.10
10089;DHT22;51898;49.864;8.550;2023-08-06T13:22:32;17.30;76.00
10089;DHT22;51898;49.864;8.550;2023-08-06T13:25:34;17.40;74.90
10089;DHT22;51898;49.864;8.550;2023-08-06T13:28:38;17.30;73.80
10089;DHT22;51898;49.864;8.550;2023-08-06T13:31:40;17.30;75.10
10089;DHT22;51898;49.864;8.550;2023-08-06T13:34:41;17.30;76.40
10089;DHT22;51898;49.864;8.550;2023-08-06T13:37:43;17.30;76.00
10089;DHT22;51898;49.864;8.550;2023-08-06T13:40:45;17.30;75.00
10089;DHT22;51898;49.864;8.550;2023-08-06T13:43:48;17.30;74.60
10089;DHT22;51898;49.864;8.550;2023-08-06T13:46:49;17.20;75.60
10089;DHT22;51898;49.864;8.550;2023-08-06T13:49:51;17.10;74.10
10089;DHT22;51898;49.864;8.550;2023-08-06T13:52:53;17.10;73.50
10089;DHT22;51898;49.864;8.550;2023-08-06T13:55:56;17.20;74.80
10089;DHT22;51898;49.864;8.550;2023-08-06T13:58:58;17.20;74.70
10089;DHT22;51898;49.864;8.550;2023-08-06T14:02:00;17.30;74.70
10089;DHT22;51898;49.864;8.550;2023-08-06T14:05:02;17.40;74.50
10089;DHT22;51898;49.864;8.550;2023-08-06T14:08:03;17.50;74.10
10089;DHT22;51898;49.864;8.550;2023-08-06T14:11:05;17.50;74.20
10089;DHT22;51898;49.864;8.550;2023-08-06T14:14:08;17.70;74.10
10089;DHT22;51898;49.864;8.550;2023-08-06T14:17:09;17.80;73.10
10089;DHT22;51898;49.864;8.550;2023-08-06T14:20:11;17.70;73.30
10089;DHT22;51898;49.864;8.550;2023-08-06T14:23:13;17.60;73.80
10089;DHT22;51898;49.864;8.550;2023-08-06T14:26:15;17.40;74.60
10089;DHT22;51898;49.864;8.550;2023-08-06T14:29:17;17.20;74.50
10089;DHT22;51898;49.864;8.550;2023-08-06T14:32:18;17.20;75.70
10089;DHT22;51898;49.864;8.550;2023-08-06T14:35:21;17.20;75.90
10089;DHT22;51898;49.864;8.550;2023-08-06T14:38:22;17.30;76.10
10089;DHT22;51898;49.864;8.550;2023-08-06T14:41:24;17.30;76.80
10089;DHT22;51898;49.864;8.550;2023-08-06T14:44:26;17.30;76.90
10089;DHT22;51898;49.864;8.550;2023-08-06T14:47:27;17.30;76.80
10089;DHT22;51898;49.864;8.550;2023-08-06T14:50:29;17.30;78.30
10089;DHT22;51898;49.864;8.550;2023-08-06T14:53:31;17.30;76.20
10089;DHT22;51898;49.864;8.550;2023-08-06T14:56:32;17.20;77.30
10089;DHT22;51898;49.864;8.550;2023-08-06T14:59:34;17.00;77.00
10089;DHT22;51898;49.864;8.550;2023-08-06T15:02:36;16.90;76.90
10089;DHT22;51898;49.864;8.550;2023-08-06T15:05:37;16.90;76.60
10089;DHT22;51898;49.864;8.550;2023-08-06T15:08:39;16.90;76.00
10089;DHT22;51898;49.864;8.550;2023-08-06T15:11:41;16.90;76.80
10089;DHT22;51898;49.864;8.550;2023-08-06T15:14:43;16.90;75.80
10089;DHT22;51898;49.864;8.550;2023-08-06T15:17:45;16.90;75.90
10089;DHT22;51898;49.864;8.550;2023-08-06T15:20:46;16.90;75.60
10089;DHT22;51898;49.864;8.550;2023-08-06T15:23:48;16.90;76.20
10089;DHT22;51898;49.864;8.550;2023-08-06T15:26:50;17.00;75.50
10089;DHT22;51898;49.864;8.550;2023-08-06T15:29:52;16.90;76.50
10089;DHT22;51898;49.864;8.550;2023-08-06T15:32:53;16.80;76.90
10089;DHT22;51898;49.864;8.550;2023-08-06T15:35:55;16.80;75.80
10089;DHT22;51898;49.864;8.550;2023-08-06T15:38:57;16.70;77.30
10089;DHT22;51898;49.864;8.550;2023-08-06T15:41:58;16.70;77.20
10089;DHT22;51898;49.864;8.550;2023-08-06T15:45:00;16.70;77.10
10089;DHT22;51898;49.864;8.550;2023-08-06T15:48:04;16.60;77.90
10089;DHT22;51898;49.864;8.550;2023-08-06T15:51:06;16.60;77.80
10089;DHT22;51898;49.864;8.550;2023-08-06T15:54:07;16.60;78.40
10089;DHT22;51898;49.864;8.550;2023-08-06T15:57:09;16.70;78.10
10089;DHT22;51898;49.864;8.550;2023-08-06T16:00:11;16.70;77.60
10089;DHT22;51898;49.864;8.550;2023-08-06T16:03:13;16.70;78.40
10089;DHT22;51898;49.864;8.550;2023-08-06T16:06:15;16.60;78.40
10089;DHT22;51898;49.864;8.550;2023-08-06T16:09:16;16.50;79.00
10089;DHT22;51898;49.864;8.550;2023-08-06T16:12:18;16.30;80.40
10089;DHT22;51898;49.864;8.550;2023-08-06T16:15:21;16.10;81.80
10089;DHT22;51898;49.864;8.550;2023-08-06T16:18:23;16.00;82.60
10089;DHT22;51898;49.864;8.550;2023-08-06T16:21:25;16.00;82.70
10089;DHT22;51898;49.864;8.550;2023-08-06T16:24:26;16.00;83.10
10089;DHT22;51898;49.864;8.550;2023-08-06T16:27:28;16.00;84.10
10089;DHT22;51898;49.864;8.550;2023-08-06T16:30:30;15.90;84.10
10089;DHT22;51898;49.864;8.550;2023-08-06T16:33:35;15.90;84.30
10089;DHT22;51898;49.864;8.550;2023-08-06T16:36:38;15.80;83.80
10089;DHT22;51898;49.864;8.550;2023-08-06T16:39:40;15.80;83.30
10089;DHT22;51898;49.864;8.550;2023-08-06T16:42:41;15.80;84.00
10089;DHT22;51898;49.864;8.550;2023-08-06T16:45:43;15.80;84.30
10089;DHT22;51898;49.864;8.550;2023-08-06T16:48:46;15.80;83.60
10089;DHT22;51898;49.864;8.550;2023-08-06T16:51:48;15.80;84.20
10089;DHT22;51898;49.864;8.550;2023-08-06T16:54:49;15.80;81.70
10089;DHT22;51898;49.864;8.550;2023-08-06T16:57:52;15.80;82.70
10089;DHT22;51898;49.864;8.550;2023-08-06T17:00:53;15.80;83.80
10089;DHT22;51898;49.864;8.550;2023-08-06T17:03:57;15.80;83.70
10089;DHT22;51898;49.864;8.550;2023-08-06T17:06:59;15.90;84.10
10089;DHT22;51898;49.864;8.550;2023-08-06T17:10:01;15.90;84.40
10089;DHT22;51898;49.864;8.550;2023-08-06T17:13:03;15.90;84.10
10089;DHT22;51898;49.864;8.550;2023-08-06T17:16:20;15.90;83.10
10089;DHT22;51898;49.864;8.550;2023-08-06T17:19:22;15.90;83.70
10089;DHT22;51898;49.864;8.550;2023-08-06T17:22:24;15.80;83.50
10089;DHT22;51898;49.864;8.550;2023-08-06T17:25:25;15.80;82.90
10089;DHT22;51898;49.864;8.550;2023-08-06T17:28:32;15.80;83.00
10089;DHT22;51898;49.864;8.550;2023-08-06T17:36:28;15.70;83.90
10089;DHT22;51898;49.864;8.550;2023-08-06T17:41:04;15.60;83.30
10089;DHT22;51898;49.864;8.550;2023-08-06T17:59:33;15.20;83.80
10089;DHT22;51898;49.864;8.550;2023-08-06T18:23:01;15.10;84.10
10089;DHT22;51898;49.864;8.550;2023-08-06T18:27:19;15.10;84.60
10089;DHT22;51898;49.864;8.550;2023-08-06T18:31:52;15.00;84.10
10089;DHT22;51898;49.864;8.550;2023-08-06T18:36:21;15.00;83.40
10089;DHT22;51898;49.864;8.550;2023-08-06T19:14:00;14.30;84.30
10089;DHT22;51898;49.864;8.550;2023-08-06T19:23:53;14.00;86.50
10089;DHT22;51898;49.864;8.550;2023-08-06T19:37:47;13.80;88.60
10089;DHT22;51898;49.864;8.550;2023-08-06T19:40:49;13.70;89.00
10089;DHT22;51898;49.864;8.550;2023-08-06T19:43:51;13.80;88.30
10089;DHT22;51898;49.864;8.550;2023-08-06T19:46:53;13.80;89.60
10089;DHT22;51898;49.864;8.550;2023-08-06T19:49:54;13.80;90.10
10089;DHT22;51898;49.864;8.550;2023-08-06T19:52:56;13.70;90.20
10089;DHT22;51898;49.864;8.550;2023-08-06T19:55:58;13.80;89.90
10089;DHT22;51898;49.864;8.550;2023-08-06T19:59:00;13.80;90.30
10089;DHT22;51898;49.864;8.550;2023-08-06T20:02:02;13.70;90.00
10089;DHT22;51898;49.864;8.550;2023-08-06T20:05:03;13.70;90.80
10089;DHT22;51898;49.864;8.550;2023-08-06T20:08:05;13.60;90.60
10089;DHT22;51898;49.864;8.550;2023-08-06T20:11:07;13.60;90.60
10089;DHT22;51898;49.864;8.550;2023-08-06T20:14:08;13.60;90.80
10089;DHT22;51898;49.864;8.550;2023-08-06T20:17:10;13.60;90.20
10089;DHT22;51898;49.864;8.550;2023-08-06T20:20:12;13.60;90.70
10089;DHT22;51898;49.864;8.550;2023-08-06T20:23:14;13.60;90.70
10089;DHT22;51898;49.864;8.550;2023-08-06T20:26:16;13.60;90.50
10089;DHT22;51898;49.864;8.550;2023-08-06T20:29:17;13.60;90.30
10089;DHT22;51898;49.864;8.550;2023-08-06T20:32:19;13.60;89.50
10089;DHT22;51898;49.864;8.550;2023-08-06T20:35:21;13.60;88.90
10089;DHT22;51898;49.864;8.550;2023-08-06T20:38:22;13.60;89.90
10089;DHT22;51898;49.864;8.550;2023-08-06T20:41:26;13.60;90.10
10089;DHT22;51898;49.864;8.550;2023-08-06T20:44:27;13.60;90.10
10089;DHT22;51898;49.864;8.550;2023-08-06T20:47:31;13.60;90.40
10089;DHT22;51898;49.864;8.550;2023-08-06T20:50:33;13.60;90.20
10089;DHT22;51898;49.864;8.550;2023-08-06T20:53:35;13.60;90.70
10089;DHT22;51898;49.864;8.550;2023-08-06T20:56:36;13.60;90.70
10089;DHT22;51898;49.864;8.550;2023-08-06T20:59:38;13.50;91.10